createdAt,value
2018-01-24T00:00:41.735Z,963.88
2018-01-24T00:01:51.453Z,963.82
2018-01-24T00:03:01.164Z,963.8
2018-01-24T00:04:11.147Z,963.77
2018-01-24T00:05:20.865Z,963.77
2018-01-24T00:06:30.842Z,963.79
2018-01-24T00:07:40.822Z,963.75
2018-01-24T00:08:50.810Z,963.72
2018-01-24T00:10:00.803Z,963.78
2018-01-24T00:11:10.528Z,963.8
2018-01-24T00:12:20.506Z,963.84
2018-01-24T00:13:30.500Z,963.82
2018-01-24T00:14:40.477Z,963.77
2018-01-24T00:15:50.201Z,963.69
2018-01-24T00:16:59.920Z,963.69
2018-01-24T00:18:09.386Z,963.73
2018-01-24T00:19:19.159Z,963.62
2018-01-24T00:20:29.143Z,963.44
2018-01-24T00:21:39.124Z,963.39
2018-01-24T00:22:49.104Z,963.33
2018-01-24T00:23:58.817Z,963.33
2018-01-24T00:25:08.534Z,963.34
2018-01-24T00:26:18.522Z,963.31
2018-01-24T00:27:28.240Z,963.31
2018-01-24T00:28:38.227Z,963.26
2018-01-24T00:29:47.941Z,963.27
2018-01-24T00:30:57.662Z,963.2
2018-01-24T00:32:07.381Z,963.28
2018-01-24T00:33:17.472Z,963.32
2018-01-24T00:34:27.456Z,963.32
2018-01-24T00:35:37.443Z,963.3
2018-01-24T00:36:47.420Z,963.32
2018-01-24T00:37:57.424Z,963.24
2018-01-24T00:39:06.617Z,963.2
2018-01-24T00:40:16.647Z,963.12
2018-01-24T00:41:26.693Z,963.13
2018-01-24T00:42:36.150Z,963.09
2018-01-24T00:43:45.867Z,963.07
2018-01-24T00:44:55.851Z,963.1
2018-01-24T00:46:05.571Z,963.13
2018-01-24T00:47:15.288Z,963.11
2018-01-24T00:48:25.008Z,963.1
2018-01-24T00:49:34.991Z,963.05
2018-01-24T00:50:44.973Z,963.05
2018-01-24T00:51:54.951Z,962.96
2018-01-24T00:53:04.670Z,962.97
2018-01-24T00:54:14.388Z,962.91
2018-01-24T00:55:24.367Z,962.9
2018-01-24T00:56:34.397Z,962.91
2018-01-24T00:57:44.401Z,962.93
2018-01-24T00:58:54.388Z,962.84
2018-01-24T01:00:03.312Z,962.78
2018-01-24T01:01:12.500Z,962.76
2018-01-24T01:02:22.490Z,962.77
2018-01-24T01:03:32.473Z,962.82
2018-01-24T01:04:42.457Z,962.8
2018-01-24T01:05:52.438Z,962.81
2018-01-24T01:07:02.160Z,962.78
2018-01-24T01:08:12.246Z,962.74
2018-01-24T01:09:22.276Z,962.67
2018-01-24T01:10:31.730Z,962.68
2018-01-24T01:11:41.712Z,962.63
2018-01-24T01:12:51.434Z,962.64
2018-01-24T01:14:01.201Z,962.62
2018-01-24T01:15:10.916Z,962.62
2018-01-24T01:16:20.671Z,962.59
2018-01-24T01:17:30.393Z,962.54
2018-01-24T01:18:40.371Z,962.53
2018-01-24T01:19:50.353Z,962.58
2018-01-24T01:21:00.069Z,962.58
2018-01-24T01:22:09.524Z,962.52
2018-01-24T01:23:19.510Z,962.49
2018-01-24T01:24:28.965Z,962.48
2018-01-24T01:25:39.057Z,962.47
2018-01-24T01:26:49.046Z,962.47
2018-01-24T01:27:59.027Z,962.44
2018-01-24T01:29:08.752Z,962.42
2018-01-24T01:30:18.744Z,962.48
2018-01-24T01:31:28.728Z,962.45
2018-01-24T01:32:38.443Z,962.45
2018-01-24T01:33:48.166Z,962.46
2018-01-24T01:34:57.881Z,962.44
2018-01-24T01:36:07.891Z,962.37
2018-01-24T01:37:17.872Z,962.38
2018-01-24T01:38:27.853Z,962.33
2018-01-24T01:39:37.831Z,962.37
2018-01-24T01:40:47.551Z,962.38
2018-01-24T01:41:57.535Z,962.34
2018-01-24T01:43:06.984Z,962.35
2018-01-24T01:44:16.699Z,962.35
2018-01-24T01:45:26.417Z,962.4
2018-01-24T01:46:36.432Z,962.4
2018-01-24T01:47:46.423Z,962.47
2018-01-24T01:48:56.411Z,962.51
2018-01-24T01:50:06.131Z,962.44
2018-01-24T01:51:16.166Z,962.38
2018-01-24T01:52:25.892Z,962.45
2018-01-24T01:53:35.878Z,962.5
2018-01-24T01:54:45.865Z,962.47
2018-01-24T01:55:55.629Z,962.51
2018-01-24T01:57:05.395Z,962.44
2018-01-24T01:58:15.380Z,962.46
2018-01-24T01:59:25.361Z,962.43
2018-01-24T02:00:34.821Z,962.41
2018-01-24T02:01:44.538Z,962.39
2018-01-24T02:02:54.526Z,962.34
2018-01-24T02:04:04.243Z,962.41
2018-01-24T02:05:13.987Z,962.4
2018-01-24T02:06:23.975Z,962.39
2018-01-24T02:07:33.686Z,962.41
2018-01-24T02:08:43.406Z,962.35
2018-01-24T02:09:53.397Z,962.34
2018-01-24T02:11:02.852Z,962.3
2018-01-24T02:12:12.887Z,962.2
2018-01-24T02:13:22.865Z,962.19
2018-01-24T02:14:32.846Z,962.23
2018-01-24T02:15:42.592Z,962.22
2018-01-24T02:16:52.580Z,962.23
2018-01-24T02:18:02.579Z,962.28
2018-01-24T02:19:12.567Z,962.25
2018-01-24T02:20:22.549Z,962.26
2018-01-24T02:21:32.006Z,962.26
2018-01-24T02:22:41.987Z,962.21
2018-01-24T02:23:51.977Z,962.18
2018-01-24T02:25:01.961Z,962.11
2018-01-24T02:26:11.945Z,962.04
2018-01-24T02:27:21.932Z,961.97
2018-01-24T02:28:31.913Z,961.93
2018-01-24T02:29:41.366Z,961.92
2018-01-24T02:30:51.355Z,961.87
2018-01-24T02:32:00.810Z,961.85
2018-01-24T02:33:10.580Z,961.9
2018-01-24T02:34:20.304Z,961.82
2018-01-24T02:35:30.292Z,961.85
2018-01-24T02:36:40.275Z,961.84
2018-01-24T02:37:50.262Z,961.84
2018-01-24T02:39:00.252Z,961.8
2018-01-24T02:40:09.978Z,961.67
2018-01-24T02:41:20.029Z,961.66
2018-01-24T02:42:29.748Z,961.58
2018-01-24T02:43:39.739Z,961.58
2018-01-24T02:44:49.744Z,961.61
2018-01-24T02:45:58.940Z,961.52
2018-01-24T02:47:08.183Z,961.47
2018-01-24T02:48:18.173Z,961.45
2018-01-24T02:49:28.172Z,961.41
2018-01-24T02:50:38.233Z,961.43
2018-01-24T02:51:48.223Z,961.43
2018-01-24T02:52:57.947Z,961.47
2018-01-24T02:54:06.871Z,961.45
2018-01-24T02:55:16.597Z,961.48
2018-01-24T02:56:26.596Z,961.49
2018-01-24T02:57:36.583Z,961.5
2018-01-24T02:58:46.099Z,961.51
2018-01-24T02:59:56.091Z,961.54
2018-01-24T03:01:05.540Z,961.61
2018-01-24T03:02:15.258Z,961.62
2018-01-24T03:03:25.239Z,961.67
2018-01-24T03:04:35.227Z,961.69
2018-01-24T03:05:44.417Z,961.74
2018-01-24T03:06:54.134Z,961.8
2018-01-24T03:08:03.852Z,961.78
2018-01-24T03:09:13.302Z,961.86
2018-01-24T03:10:22.760Z,961.85
2018-01-24T03:11:32.478Z,961.92
2018-01-24T03:12:42.457Z,961.92
2018-01-24T03:13:52.437Z,961.93
2018-01-24T03:15:02.156Z,961.94
2018-01-24T03:16:11.960Z,961.96
2018-01-24T03:17:21.950Z,961.94
2018-01-24T03:18:31.942Z,961.89
2018-01-24T03:19:41.925Z,961.84
2018-01-24T03:20:51.915Z,961.81
2018-01-24T03:22:01.629Z,961.81
2018-01-24T03:23:11.350Z,961.78
2018-01-24T03:24:21.331Z,961.81
2018-01-24T03:25:31.309Z,961.83
2018-01-24T03:26:41.028Z,961.82
2018-01-24T03:27:51.017Z,961.84
2018-01-24T03:29:00.733Z,961.78
2018-01-24T03:30:10.717Z,961.8
2018-01-24T03:31:20.441Z,961.81
2018-01-24T03:32:30.434Z,961.78
2018-01-24T03:33:40.153Z,961.71
2018-01-24T03:34:50.137Z,961.72
2018-01-24T03:35:59.850Z,961.67
2018-01-24T03:37:09.830Z,961.68
2018-01-24T03:38:19.814Z,961.73
2018-01-24T03:39:29.264Z,961.76
2018-01-24T03:40:39.246Z,961.88
2018-01-24T03:41:49.229Z,961.92
2018-01-24T03:42:59.214Z,961.93
2018-01-24T03:44:09.194Z,961.92
2018-01-24T03:45:19.181Z,961.89
2018-01-24T03:46:28.904Z,961.82
2018-01-24T03:47:38.894Z,961.8
2018-01-24T03:48:48.874Z,961.81
2018-01-24T03:49:58.590Z,961.78
2018-01-24T03:51:08.042Z,961.77
2018-01-24T03:52:18.021Z,961.85
2018-01-24T03:53:28.005Z,961.82
2018-01-24T03:54:37.518Z,961.87
2018-01-24T03:55:47.506Z,961.85
2018-01-24T03:56:57.327Z,961.8
2018-01-24T03:58:07.045Z,961.8
2018-01-24T03:59:17.053Z,961.74
2018-01-24T04:04:29.255Z,961.78
2018-01-24T04:05:38.966Z,961.68
2018-01-24T04:06:48.951Z,961.74
2018-01-24T04:07:58.936Z,961.78
2018-01-24T04:09:08.652Z,961.81
2018-01-24T04:10:18.124Z,961.86
2018-01-24T04:11:27.580Z,961.83
2018-01-24T04:12:37.563Z,961.84
2018-01-24T04:13:47.552Z,961.93
2018-01-24T04:14:57.269Z,961.92
2018-01-24T04:16:06.990Z,961.93
2018-01-24T04:17:16.973Z,961.78
2018-01-24T04:18:26.954Z,961.75
2018-01-24T04:19:36.934Z,961.74
2018-01-24T04:20:46.652Z,961.85
2018-01-24T04:21:56.634Z,961.89
2018-01-24T04:23:05.828Z,961.92
2018-01-24T04:24:15.555Z,961.93
2018-01-24T04:25:25.002Z,961.88
2018-01-24T04:26:34.719Z,961.9
2018-01-24T04:27:44.752Z,961.9
2018-01-24T04:28:54.738Z,961.92
2018-01-24T04:30:04.189Z,961.95
2018-01-24T04:31:13.643Z,962.02
2018-01-24T04:32:23.150Z,962.02
2018-01-24T04:33:33.133Z,962.09
2018-01-24T04:34:43.117Z,962.09
2018-01-24T04:35:53.097Z,962.07
2018-01-24T04:37:03.078Z,962.04
2018-01-24T04:38:12.810Z,962.03
2018-01-24T04:39:22.531Z,962.05
2018-01-24T04:40:32.247Z,961.99
2018-01-24T04:41:42.229Z,961.93
2018-01-24T04:42:52.211Z,961.94
2018-01-24T04:44:01.956Z,961.94
2018-01-24T04:45:11.682Z,961.93
2018-01-24T04:46:21.403Z,961.98
2018-01-24T04:47:31.116Z,961.97
2018-01-24T04:48:41.097Z,961.88
2018-01-24T04:49:51.177Z,961.91
2018-01-24T04:51:00.914Z,961.94
2018-01-24T04:52:10.634Z,961.88
2018-01-24T04:53:20.613Z,961.77
2018-01-24T04:54:30.330Z,961.73
2018-01-24T04:55:40.309Z,961.8
2018-01-24T04:56:49.759Z,961.88
2018-01-24T04:57:59.476Z,961.89
2018-01-24T04:59:08.925Z,961.85
2018-01-24T05:00:18.903Z,961.85
2018-01-24T05:01:28.619Z,961.84
2018-01-24T05:02:38.336Z,961.88
2018-01-24T05:03:48.319Z,961.96
2018-01-24T05:04:58.295Z,961.98
2018-01-24T05:06:07.749Z,961.97
2018-01-24T05:07:17.730Z,961.94
2018-01-24T05:08:27.711Z,961.94
2018-01-24T05:09:37.429Z,961.95
2018-01-24T05:10:47.462Z,961.92
2018-01-24T05:11:57.448Z,961.92
2018-01-24T05:13:07.263Z,961.93
2018-01-24T05:14:17.239Z,961.89
2018-01-24T05:15:26.695Z,961.89
2018-01-24T05:16:36.679Z,961.93
2018-01-24T05:17:46.665Z,961.9
2018-01-24T05:18:56.642Z,961.81
2018-01-24T05:20:06.097Z,961.76
2018-01-24T05:21:16.081Z,961.76
2018-01-24T05:22:25.795Z,961.81
2018-01-24T05:23:35.249Z,961.9
2018-01-24T05:24:45.012Z,962
2018-01-24T05:25:54.997Z,962.03
2018-01-24T05:27:04.984Z,962.08
2018-01-24T05:28:14.965Z,962.15
2018-01-24T05:29:24.951Z,962.2
2018-01-24T05:30:34.929Z,962.27
2018-01-24T05:31:44.914Z,962.29
2018-01-24T05:32:54.367Z,962.27
2018-01-24T05:34:04.347Z,962.34
2018-01-24T05:35:14.065Z,962.31
2018-01-24T05:36:24.096Z,962.32
2018-01-24T05:37:34.083Z,962.33
2018-01-24T05:38:43.799Z,962.33
2018-01-24T05:39:53.782Z,962.42
2018-01-24T05:41:03.238Z,962.4
2018-01-24T05:42:12.430Z,962.36
2018-01-24T05:43:22.411Z,962.27
2018-01-24T05:44:32.398Z,962.19
2018-01-24T05:45:42.383Z,962.14
2018-01-24T05:46:52.096Z,962.1
2018-01-24T05:48:01.819Z,962.07
2018-01-24T05:49:11.803Z,962.05
2018-01-24T05:50:21.840Z,962.06
2018-01-24T05:51:31.824Z,962.06
2018-01-24T05:52:41.804Z,962.01
2018-01-24T05:53:51.789Z,962.04
2018-01-24T05:55:01.775Z,961.98
2018-01-24T05:56:11.229Z,961.98
2018-01-24T05:57:21.205Z,962.01
2018-01-24T05:58:31.195Z,962.08
2018-01-24T05:59:41.180Z,962.1
2018-01-24T06:00:51.162Z,962.2
2018-01-24T06:02:00.882Z,962.17
2018-01-24T06:03:10.602Z,962.1
2018-01-24T06:04:20.332Z,962.06
2018-01-24T06:05:30.047Z,961.97
2018-01-24T06:06:40.030Z,962.04
2018-01-24T06:07:50.009Z,962.16
2018-01-24T06:08:59.724Z,962.25
2018-01-24T06:10:09.441Z,962.31
2018-01-24T06:11:19.422Z,962.46
2018-01-24T06:12:29.409Z,962.41
2018-01-24T06:13:39.395Z,962.39
2018-01-24T06:14:49.381Z,962.41
2018-01-24T06:15:59.364Z,962.42
2018-01-24T06:17:08.550Z,962.45
2018-01-24T06:18:18.536Z,962.5
2018-01-24T06:19:28.635Z,962.55
2018-01-24T06:20:38.617Z,962.59
2018-01-24T06:21:48.599Z,962.6
2018-01-24T06:22:58.584Z,962.58
2018-01-24T06:24:08.307Z,962.61
2018-01-24T06:25:18.292Z,962.69
2018-01-24T06:26:28.073Z,962.63
2018-01-24T06:27:38.059Z,962.64
2018-01-24T06:28:48.058Z,962.72
2018-01-24T06:29:57.776Z,962.69
2018-01-24T06:31:07.493Z,962.77
2018-01-24T06:32:17.320Z,962.79
2018-01-24T06:33:27.037Z,962.86
2018-01-24T06:34:37.060Z,962.92
2018-01-24T06:35:46.470Z,962.94
2018-01-24T06:36:56.448Z,962.95
2018-01-24T06:38:05.902Z,962.9
2018-01-24T06:39:15.883Z,962.88
2018-01-24T06:40:25.611Z,962.81
2018-01-24T06:41:35.590Z,962.76
2018-01-24T06:42:45.573Z,962.76
2018-01-24T06:43:55.553Z,962.75
2018-01-24T06:45:05.271Z,962.67
2018-01-24T06:46:15.037Z,962.67
2018-01-24T06:47:24.754Z,962.66
2018-01-24T06:48:34.743Z,962.68
2018-01-24T06:49:44.461Z,962.69
2018-01-24T06:50:54.176Z,962.67
2018-01-24T06:52:03.630Z,962.71
2018-01-24T06:53:13.614Z,962.69
2018-01-24T06:54:23.601Z,962.65
2018-01-24T06:55:33.619Z,962.6
2018-01-24T06:56:43.110Z,962.56
2018-01-24T06:57:53.096Z,962.53
2018-01-24T06:59:02.552Z,962.48
2018-01-24T07:00:12.001Z,962.42
2018-01-24T07:01:21.720Z,962.42
2018-01-24T07:02:31.699Z,962.37
2018-01-24T07:03:41.684Z,962.43
2018-01-24T07:04:51.663Z,962.55
2018-01-24T07:06:01.382Z,962.65
2018-01-24T07:07:11.099Z,962.74
2018-01-24T07:08:21.075Z,962.76
2018-01-24T07:09:31.077Z,962.73
2018-01-24T07:10:41.068Z,962.73
2018-01-24T07:11:51.050Z,962.78
2018-01-24T07:13:00.498Z,962.86
2018-01-24T07:14:10.216Z,962.85
2018-01-24T07:15:19.402Z,962.88
2018-01-24T07:16:29.184Z,962.88
2018-01-24T07:17:39.176Z,962.84
2018-01-24T07:18:49.153Z,962.85
2018-01-24T07:19:59.134Z,962.9
2018-01-24T07:21:08.853Z,962.86
2018-01-24T07:22:18.579Z,962.77
2018-01-24T07:23:28.297Z,962.72
2018-01-24T07:24:37.749Z,962.76
2018-01-24T07:25:47.197Z,962.75
2018-01-24T07:26:57.338Z,962.63
2018-01-24T07:28:07.323Z,962.53
2018-01-24T07:29:17.297Z,962.48
2018-01-24T07:30:27.014Z,962.42
2018-01-24T07:31:36.728Z,962.47
2018-01-24T07:32:46.442Z,962.45
2018-01-24T07:33:56.430Z,962.44
2018-01-24T07:35:06.419Z,962.45
2018-01-24T07:36:16.661Z,962.49
2018-01-24T07:37:26.642Z,962.47
2018-01-24T07:38:36.723Z,962.46
2018-01-24T07:39:46.755Z,962.41
2018-01-24T07:40:56.741Z,962.45
2018-01-24T07:42:06.467Z,962.52
2018-01-24T07:43:16.193Z,962.54
2018-01-24T07:44:26.220Z,962.64
2018-01-24T07:45:35.934Z,962.62
2018-01-24T07:46:45.649Z,962.58
2018-01-24T07:47:55.636Z,962.49
2018-01-24T07:49:05.618Z,962.48
2018-01-24T07:50:15.437Z,962.5
2018-01-24T07:51:25.422Z,962.64
2018-01-24T07:52:35.454Z,962.78
2018-01-24T07:53:45.214Z,962.9
2018-01-24T07:54:55.194Z,962.92
2018-01-24T07:56:05.177Z,962.87
2018-01-24T07:57:14.905Z,962.88
2018-01-24T07:58:24.886Z,962.86
2018-01-24T07:59:34.872Z,962.86
2018-01-24T08:00:44.850Z,962.89
2018-01-24T08:01:54.836Z,962.88
2018-01-24T08:03:04.823Z,962.88
2018-01-24T08:04:14.872Z,962.97
2018-01-24T08:05:24.598Z,963.04
2018-01-24T08:06:34.329Z,963.11
2018-01-24T08:07:44.318Z,963.16
2018-01-24T08:08:54.039Z,963.14
2018-01-24T08:10:04.026Z,963.14
2018-01-24T08:11:14.010Z,963.12
2018-01-24T08:12:23.737Z,963.05
2018-01-24T08:13:33.715Z,963.04
2018-01-24T08:14:43.700Z,962.94
2018-01-24T08:15:53.419Z,962.94
2018-01-24T08:17:03.134Z,962.9
2018-01-24T08:18:13.119Z,962.95
2018-01-24T08:19:22.838Z,962.98
2018-01-24T08:20:32.554Z,963.01
2018-01-24T08:21:42.268Z,963.09
2018-01-24T08:22:52.243Z,963.12
2018-01-24T08:24:01.695Z,963.12
2018-01-24T08:25:11.412Z,963.11
2018-01-24T08:26:21.398Z,963.09
2018-01-24T08:27:31.119Z,963.1
2018-01-24T08:28:40.839Z,963.16
2018-01-24T08:29:50.560Z,963.18
2018-01-24T08:31:00.172Z,963.2
2018-01-24T08:32:09.629Z,963.17
2018-01-24T08:33:19.346Z,963.27
2018-01-24T08:34:29.064Z,963.25
2018-01-24T08:35:38.781Z,963.3
2018-01-24T08:36:48.763Z,963.24
2018-01-24T08:37:58.748Z,963.19
2018-01-24T08:39:07.970Z,963.18
2018-01-24T08:40:17.965Z,963.15
2018-01-24T08:41:27.682Z,963.21
2018-01-24T08:42:37.452Z,963.2
2018-01-24T08:43:47.441Z,963.21
2018-01-24T08:44:57.038Z,963.26
2018-01-24T08:46:06.754Z,963.24
2018-01-24T08:47:16.470Z,963.23
2018-01-24T08:48:26.563Z,963.19
2018-01-24T08:49:36.545Z,963.12
2018-01-24T08:50:46.532Z,963.05
2018-01-24T08:51:56.250Z,963
2018-01-24T08:53:05.969Z,962.96
2018-01-24T08:54:15.743Z,962.97
2018-01-24T08:55:25.458Z,962.93
2018-01-24T08:56:35.451Z,962.95
2018-01-24T08:57:45.437Z,962.93
2018-01-24T08:58:55.425Z,962.94
2018-01-24T09:00:05.415Z,962.97
2018-01-24T09:01:15.397Z,962.95
2018-01-24T09:02:25.391Z,962.99
2018-01-24T09:03:35.106Z,963.04
2018-01-24T09:04:45.088Z,963.06
2018-01-24T09:05:54.594Z,963.11
2018-01-24T09:07:04.050Z,963.1
2018-01-24T09:08:14.034Z,963.08
2018-01-24T09:09:24.011Z,963.08
2018-01-24T09:10:34.000Z,963.1
2018-01-24T09:11:43.825Z,963.06
2018-01-24T09:12:53.544Z,963.06
2018-01-24T09:14:03.269Z,963.08
2018-01-24T09:15:13.304Z,963.05
2018-01-24T09:16:23.296Z,963.1
2018-01-24T09:17:33.337Z,963.14
2018-01-24T09:18:43.092Z,963.15
2018-01-24T09:19:53.077Z,963.17
2018-01-24T09:21:02.800Z,963.17
2018-01-24T09:22:12.782Z,963.23
2018-01-24T09:23:22.772Z,963.2
2018-01-24T09:24:32.496Z,963.18
2018-01-24T09:25:42.215Z,963.15
2018-01-24T09:26:52.197Z,963.19
2018-01-24T09:28:01.955Z,963.15
2018-01-24T09:29:11.679Z,963.2
2018-01-24T09:30:21.663Z,963.17
2018-01-24T09:31:31.651Z,963.22
2018-01-24T09:32:41.369Z,963.21
2018-01-24T09:33:51.089Z,963.28
2018-01-24T09:35:00.819Z,963.31
2018-01-24T09:36:10.541Z,963.36
2018-01-24T09:37:20.526Z,963.38
2018-01-24T09:38:30.502Z,963.37
2018-01-24T09:39:40.221Z,963.36
2018-01-24T09:40:49.946Z,963.31
2018-01-24T09:41:59.932Z,963.29
2018-01-24T09:43:09.648Z,963.32
2018-01-24T09:44:19.101Z,963.29
2018-01-24T09:45:28.556Z,963.3
2018-01-24T09:46:38.545Z,963.33
2018-01-24T09:47:48.271Z,963.48
2018-01-24T09:48:57.992Z,963.56
2018-01-24T09:50:07.715Z,963.57
2018-01-24T09:51:17.733Z,963.65
2018-01-24T09:52:27.461Z,963.64
2018-01-24T09:53:37.181Z,963.68
2018-01-24T09:54:46.907Z,963.66
2018-01-24T09:55:56.364Z,963.68
2018-01-24T09:57:05.816Z,963.76
2018-01-24T09:58:16.048Z,963.84
2018-01-24T09:59:25.766Z,963.79
2018-01-24T10:00:35.485Z,963.81
2018-01-24T10:01:45.477Z,963.74
2018-01-24T10:02:55.456Z,963.66
2018-01-24T10:04:05.021Z,963.64
2018-01-24T10:05:14.765Z,963.63
2018-01-24T10:06:24.744Z,963.59
2018-01-24T10:07:34.728Z,963.56
2018-01-24T10:08:44.784Z,963.49
2018-01-24T10:09:54.774Z,963.56
2018-01-24T10:11:04.228Z,963.49
2018-01-24T10:12:13.948Z,963.47
2018-01-24T10:13:23.936Z,963.44
2018-01-24T10:14:33.927Z,963.49
2018-01-24T10:15:43.905Z,963.51
2018-01-24T10:16:53.884Z,963.48
2018-01-24T10:18:03.923Z,963.57
2018-01-24T10:19:13.645Z,963.58
2018-01-24T10:20:23.630Z,963.48
2018-01-24T10:21:33.617Z,963.54
2018-01-24T10:22:43.338Z,963.55
2018-01-24T10:23:53.325Z,963.57
2018-01-24T10:25:02.782Z,963.59
2018-01-24T10:26:12.587Z,963.64
2018-01-24T10:27:22.305Z,963.67
2018-01-24T10:28:31.762Z,963.65
2018-01-24T10:29:41.231Z,963.71
2018-01-24T10:30:51.215Z,963.69
2018-01-24T10:32:00.933Z,963.69
2018-01-24T10:33:10.969Z,963.68
2018-01-24T10:34:20.689Z,963.62
2018-01-24T10:35:30.409Z,963.56
2018-01-24T10:36:40.406Z,963.53
2018-01-24T10:37:50.124Z,963.52
2018-01-24T10:39:00.104Z,963.55
2018-01-24T10:40:09.822Z,963.55
2018-01-24T10:41:19.326Z,963.47
2018-01-24T10:42:29.044Z,963.53
2018-01-24T10:43:38.763Z,963.54
2018-01-24T10:44:48.891Z,963.56
2018-01-24T10:45:58.609Z,963.49
2018-01-24T10:47:08.327Z,963.38
2018-01-24T10:48:18.043Z,963.39
2018-01-24T10:49:28.037Z,963.28
2018-01-24T10:50:37.814Z,963.23
2018-01-24T10:51:47.833Z,963.18
2018-01-24T10:52:57.815Z,963.23
2018-01-24T10:54:07.541Z,963.29
2018-01-24T10:55:17.534Z,963.22
2018-01-24T10:56:27.248Z,963.21
2018-01-24T10:57:37.229Z,963.23
2018-01-24T10:58:46.945Z,963.22
2018-01-24T10:59:56.932Z,963.3
2018-01-24T11:01:06.914Z,963.28
2018-01-24T11:02:16.899Z,963.26
2018-01-24T11:03:26.626Z,963.38
2018-01-24T11:04:36.345Z,963.4
2018-01-24T11:05:46.331Z,963.41
2018-01-24T11:06:56.344Z,963.47
2018-01-24T11:08:06.317Z,963.54
2018-01-24T11:09:16.036Z,963.48
2018-01-24T11:10:26.018Z,963.4
2018-01-24T11:11:36.012Z,963.36
2018-01-24T11:12:45.727Z,963.34
2018-01-24T11:13:55.817Z,963.33
2018-01-24T11:15:05.296Z,963.32
2018-01-24T11:16:15.285Z,963.24
2018-01-24T11:17:24.747Z,963.2
2018-01-24T11:18:34.198Z,963.15
2018-01-24T11:19:43.973Z,963.17
2018-01-24T11:20:53.701Z,963.14
2018-01-24T11:22:03.685Z,963.11
2018-01-24T11:23:13.405Z,963.03
2018-01-24T11:24:22.630Z,962.94
2018-01-24T11:25:32.405Z,963.04
2018-01-24T11:26:42.398Z,963.1
2018-01-24T11:27:52.115Z,963.1
2018-01-24T11:29:01.833Z,963.04
2018-01-24T11:30:11.550Z,963.04
2018-01-24T11:31:21.537Z,963
2018-01-24T11:32:31.276Z,962.98
2018-01-24T11:33:41.000Z,962.87
2018-01-24T11:34:50.739Z,962.81
2018-01-24T11:36:00.488Z,962.65
2018-01-24T11:37:11.928Z,962.59
2018-01-24T11:38:21.911Z,962.43
2018-01-24T11:39:31.921Z,962.36
2018-01-24T11:40:41.655Z,962.31
2018-01-24T11:41:51.637Z,962.26
2018-01-24T11:43:01.369Z,962.31
2018-01-24T11:44:11.088Z,962.31
2018-01-24T11:45:20.810Z,962.28
2018-01-24T11:46:30.278Z,962.26
2018-01-24T11:47:39.999Z,962.12
2018-01-24T11:48:49.829Z,962.03
2018-01-24T11:49:59.823Z,961.99
2018-01-24T11:51:09.554Z,961.99
2018-01-24T11:52:19.273Z,961.94
2018-01-24T11:53:29.260Z,961.82
2018-01-24T11:54:39.346Z,961.77
2018-01-24T11:55:49.340Z,961.73
2018-01-24T11:56:58.798Z,961.74
2018-01-24T11:58:08.265Z,961.78
2018-01-24T11:59:17.986Z,961.83
2018-01-24T12:00:27.707Z,961.81
2018-01-24T12:01:37.691Z,961.77
2018-01-24T12:02:47.435Z,961.63
2018-01-24T12:03:57.426Z,961.61
2018-01-24T12:05:07.146Z,961.58
2018-01-24T12:06:17.300Z,961.58
2018-01-24T12:07:27.020Z,961.54
2018-01-24T12:08:37.052Z,961.57
2018-01-24T12:09:46.777Z,961.5
2018-01-24T12:10:56.500Z,961.41
2018-01-24T12:12:05.743Z,961.32
2018-01-24T12:13:15.465Z,961.05
2018-01-24T12:14:25.193Z,961
2018-01-24T12:15:34.920Z,960.96
2018-01-24T12:16:44.903Z,960.96
2018-01-24T12:17:54.938Z,960.92
2018-01-24T12:19:04.663Z,960.84
2018-01-24T12:20:14.686Z,960.71
2018-01-24T12:21:24.453Z,960.68
2018-01-24T12:22:34.445Z,960.59
2018-01-24T12:23:43.952Z,960.42
2018-01-24T12:24:53.403Z,960.28
2018-01-24T12:26:03.125Z,960.19
2018-01-24T12:27:12.847Z,960.12
2018-01-24T12:28:22.829Z,960.03
2018-01-24T12:29:32.650Z,960.01
2018-01-24T12:30:42.369Z,959.95
2018-01-24T12:31:52.357Z,959.9
2018-01-24T12:33:02.345Z,959.84
2018-01-24T12:34:11.800Z,959.71
2018-01-24T12:35:21.889Z,959.68
2018-01-24T12:36:31.884Z,959.66
2018-01-24T12:37:41.872Z,959.7
2018-01-24T12:38:51.855Z,959.63
2018-01-24T12:40:01.854Z,959.5
2018-01-24T12:41:11.630Z,959.49
2018-01-24T12:42:21.613Z,959.48
2018-01-24T12:43:31.590Z,959.37
2018-01-24T12:44:41.366Z,959.28
2018-01-24T12:45:50.821Z,959.21
2018-01-24T12:47:00.326Z,959.12
2018-01-24T12:48:10.318Z,958.95
2018-01-24T12:49:20.038Z,958.74
2018-01-24T12:50:29.776Z,958.63
2018-01-24T12:51:39.501Z,958.45
2018-01-24T12:52:49.532Z,958.35
2018-01-24T12:53:58.983Z,958.2
2018-01-24T12:55:08.708Z,958.06
2018-01-24T12:56:18.693Z,958.13
2018-01-24T12:57:28.676Z,958.09
2018-01-24T12:58:38.712Z,958.03
2018-01-24T12:59:48.697Z,958.01
2018-01-24T13:00:58.740Z,957.9
2018-01-24T13:02:08.194Z,957.77
2018-01-24T13:03:17.916Z,957.76
2018-01-24T13:04:27.748Z,957.69
2018-01-24T13:05:37.761Z,957.66
2018-01-24T13:06:47.743Z,957.57
2018-01-24T13:07:57.263Z,957.6
2018-01-24T13:09:07.373Z,957.66
2018-01-24T13:10:16.877Z,957.61
2018-01-24T13:11:26.867Z,957.57
2018-01-24T13:12:36.857Z,957.59
2018-01-24T13:13:46.594Z,957.56
2018-01-24T13:14:56.315Z,957.52
2018-01-24T13:16:05.826Z,957.47
2018-01-24T13:17:15.807Z,957.39
2018-01-24T13:18:25.814Z,957.41
2018-01-24T13:19:35.839Z,957.4
2018-01-24T13:20:45.870Z,957.54
2018-01-24T13:21:55.909Z,957.52
2018-01-24T13:23:05.900Z,957.5
2018-01-24T13:24:15.619Z,957.38
2018-01-24T13:25:25.611Z,957.25
2018-01-24T13:26:35.597Z,957.16
2018-01-24T13:27:45.686Z,957.05
2018-01-24T13:28:55.680Z,957.15
2018-01-24T13:30:05.396Z,957.1
2018-01-24T13:31:15.383Z,956.98
2018-01-24T13:32:25.364Z,956.89
2018-01-24T13:33:35.447Z,956.96
2018-01-24T13:34:44.641Z,956.91
2018-01-24T13:35:54.357Z,956.82
2018-01-24T13:37:04.082Z,956.58
2018-01-24T13:38:14.104Z,956.58
2018-01-24T13:39:24.195Z,956.48
2018-01-24T13:40:33.923Z,956.34
2018-01-24T13:41:43.911Z,956.26
2018-01-24T13:42:53.631Z,956.2
2018-01-24T13:44:03.347Z,956.09
2018-01-24T13:45:12.852Z,956.13
2018-01-24T13:46:22.832Z,956.11
2018-01-24T13:47:32.551Z,956.08
2018-01-24T13:48:42.267Z,955.92
2018-01-24T13:49:52.253Z,956.02
2018-01-24T13:51:02.271Z,956.05
2018-01-24T13:52:12.256Z,955.93
2018-01-24T13:53:22.238Z,955.83
2018-01-24T13:54:32.226Z,955.95
2018-01-24T13:55:41.943Z,955.62
2018-01-24T13:56:51.924Z,955.4
2018-01-24T13:58:01.645Z,955.28
2018-01-24T13:59:11.359Z,955.3
2018-01-24T14:00:21.347Z,955.1
2018-01-24T14:01:31.334Z,954.87
2018-01-24T14:02:41.360Z,954.83
2018-01-24T14:03:51.080Z,954.97
2018-01-24T14:05:00.796Z,955.11
2018-01-24T14:06:10.515Z,955.35
2018-01-24T14:07:20.500Z,955.2
2018-01-24T14:08:30.485Z,955.24
2018-01-24T14:09:40.476Z,955.32
2018-01-24T14:10:50.463Z,955.3
2018-01-24T14:12:00.182Z,955.43
2018-01-24T14:13:09.379Z,955.64
2018-01-24T14:14:19.365Z,955.71
2018-01-24T14:15:29.081Z,955.43
2018-01-24T14:16:39.062Z,955.33
2018-01-24T14:17:49.088Z,955.16
2018-01-24T14:18:59.070Z,955.07
2018-01-24T14:20:08.523Z,954.9
2018-01-24T14:21:18.507Z,954.77
2018-01-24T14:22:27.968Z,954.69
2018-01-24T14:23:37.155Z,954.63
2018-01-24T14:24:46.871Z,954.7
2018-01-24T14:25:56.860Z,954.59
2018-01-24T14:27:06.310Z,954.6
2018-01-24T14:28:16.029Z,954.74
2018-01-24T14:29:26.021Z,954.77
2018-01-24T14:30:36.007Z,954.73
2018-01-24T14:31:45.994Z,954.65
2018-01-24T14:32:56.025Z,954.57
2018-01-24T14:34:05.486Z,954.52
2018-01-24T14:35:15.470Z,954.37
2018-01-24T14:36:25.455Z,954.15
2018-01-24T14:37:35.440Z,953.88
2018-01-24T14:38:45.427Z,953.76